Flight Track Log - Related Links

Times and Time Zones

All times are in EDT time to prevent confusion due to time zone crossing. See the N610JR flight status page for this flight to view local times or setup timezone preferences in your user account.

Time Position Orientation Groundspeed Altitude Reporting Facility
EDT Latitude Longitude Course Direction KTS MPH feet Rate Location/Type
Thu 08:49:06 PM 40.7656 -89.7128 25° Northeast 240 276 8,900  Level Chicago Center
Thu 08:50:08 PM 40.8261 -89.6300 46° Northeast 306 352 8,900 48 Level Chicago Center
Thu 08:51:11 PM 40.8964 -89.5731 31° Northeast 300 345 9,000  Climbing Chicago Center
Thu 08:52:00 PM 40.9958 -89.3346 39° Northeast  Level Estimated
Thu 08:52:13 PM 40.9681 -89.4889 42° Northeast 289 333 8,900  Level Chicago Center
Thu 08:53:00 PM 41.0509 -89.2744 39° Northeast  Level Estimated
Thu 08:53:15 PM 41.0317 -89.4267 36° Northeast 285 328 8,900  Level Chicago Center
Thu 08:54:16 PM 41.0928 -89.3625 38° Northeast 282 325 9,000  Climbing Chicago Center
Thu 08:55:18 PM 41.1439 -89.2831 49° Northeast 282 325 8,900 -48 Descending Chicago Center
Thu 08:56:20 PM 41.1975 -89.2078 47° Northeast 282 325 8,900  Level Chicago Center
Thu 08:57:23 PM 41.2597 -89.1372 40° Northeast 278 320 8,900  Level Chicago Center
Thu 08:58:25 PM 41.3167 -89.0667 43° Northeast 281 323 8,900 48 Level Chicago Center
Thu 08:59:27 PM 41.3881 -88.9847 41° Northeast 284 327 9,000 48 Climbing Chicago Center
Thu 09:00:29 PM 41.4464 -88.9103 44° Northeast 290 334 9,000 -387 Level Chicago Center
Thu 09:01:31 PM 41.5078 -88.8386 41° Northeast 295 339 8,200 -1,355 Descending Chicago Center
Thu 09:02:33 PM 41.5558 -88.7586 51° Northeast 281 323 6,200 -1,935 Descending Chicago Center
Thu 09:03:35 PM 41.6100 -88.6936 42° Northeast 266 306 4,200 -1,452 Descending Chicago Center
Thu 09:04:37 PM 41.6611 -88.6306 43° Northeast 257 296 3,200 -768 Descending Chicago Center
Thu 09:05:40 PM 41.7203 -88.5714 37° Northeast 236 272 2,600 -576 Descending Chicago Center
Thu 09:06:42 PM 41.7664 -88.5344 31° Northeast 217 250 2,000 -823 Descending Chicago Center
Thu 09:07:44 PM 41.7719 -88.4850 81° East 173 199 900 -1,065 Descending Chicago Center
Thu 09:09:00 PM 41.7719 -88.4757 26° Northeast  Level Estimated

Login

Don't have an account? Register now (free) for customized features, flight alerts, and more!